Wittenberg, Wisconsin
Current Conditions -  °F | °C
As of 11:15 PM on Wednesday 26 Nov 2014 (Local Time) from KAIG Reporting Station
Overcast Overcast  
Wind Chill:   Ceiling: 1900
Heat Index: 19°   Visibility: 10mi
Dew Point: 15°   Wind: 13mph
Humidity: 83%   Direction: 330°NNW
Pressure: 30.17"   Gusts: NA
Location:  44.83°N, 89.17°W
Report Text: KAIG 270515Z AUTO 33011KT 10SM OVC019 M07/M09 A3017 RMK AO2 T10711095
Loading
Personal Weather Stations






























Interactive Weather Map New forecast layout! Learn more

10-Day Weather Forecast

Advertisements
Track Severe Weather on mobile